sensor_id;sensor_type;location;lat;lon;timestamp;temperature;humidity
4411;DHT22;2218;51.408;7.208;2022-12-07T00:01:42;18.50;34.60
4411;DHT22;2218;51.408;7.208;2022-12-07T00:04:13;18.50;35.20
4411;DHT22;2218;51.408;7.208;2022-12-07T00:06:43;18.50;34.70
4411;DHT22;2218;51.408;7.208;2022-12-07T00:09:12;18.50;34.70
4411;DHT22;2218;51.408;7.208;2022-12-07T00:11:41;18.50;34.70
4411;DHT22;2218;51.408;7.208;2022-12-07T00:14:11;18.50;34.80
4411;DHT22;2218;51.408;7.208;2022-12-07T00:16:39;18.50;34.80
4411;DHT22;2218;51.408;7.208;2022-12-07T00:19:06;18.50;34.80
4411;DHT22;2218;51.408;7.208;2022-12-07T00:21:35;18.50;34.80
4411;DHT22;2218;51.408;7.208;2022-12-07T00:24:04;18.40;34.70
4411;DHT22;2218;51.408;7.208;2022-12-07T00:26:34;18.50;34.80
4411;DHT22;2218;51.408;7.208;2022-12-07T00:29:06;18.40;34.80
4411;DHT22;2218;51.408;7.208;2022-12-07T00:31:35;18.40;34.80
4411;DHT22;2218;51.408;7.208;2022-12-07T00:34:04;18.40;34.80
4411;DHT22;2218;51.408;7.208;2022-12-07T00:36:32;18.40;34.80
4411;DHT22;2218;51.408;7.208;2022-12-07T00:39:01;18.40;34.80
4411;DHT22;2218;51.408;7.208;2022-12-07T00:41:28;18.40;34.90
4411;DHT22;2218;51.408;7.208;2022-12-07T00:43:57;18.40;34.90
4411;DHT22;2218;51.408;7.208;2022-12-07T00:46:24;18.40;34.90
4411;DHT22;2218;51.408;7.208;2022-12-07T00:48:53;18.40;34.90
4411;DHT22;2218;51.408;7.208;2022-12-07T00:51:22;18.40;34.90
4411;DHT22;2218;51.408;7.208;2022-12-07T00:53:50;18.40;34.90
4411;DHT22;2218;51.408;7.208;2022-12-07T00:56:21;18.40;35.00
4411;DHT22;2218;51.408;7.208;2022-12-07T00:58:51;18.40;35.00
4411;DHT22;2218;51.408;7.208;2022-12-07T01:01:19;18.40;35.00
4411;DHT22;2218;51.408;7.208;2022-12-07T01:03:46;18.30;34.90
4411;DHT22;2218;51.408;7.208;2022-12-07T01:06:15;18.30;35.00
4411;DHT22;2218;51.408;7.208;2022-12-07T01:08:43;18.30;35.00
4411;DHT22;2218;51.408;7.208;2022-12-07T01:11:13;18.30;35.00
4411;DHT22;2218;51.408;7.208;2022-12-07T01:13:44;18.30;35.00
4411;DHT22;2218;51.408;7.208;2022-12-07T01:16:13;18.30;35.00
4411;DHT22;2218;51.408;7.208;2022-12-07T01:18:41;18.30;35.10
4411;DHT22;2218;51.408;7.208;2022-12-07T01:21:14;18.30;35.10
4411;DHT22;2218;51.408;7.208;2022-12-07T01:23:42;18.30;35.10
4411;DHT22;2218;51.408;7.208;2022-12-07T01:26:12;18.30;35.10
4411;DHT22;2218;51.408;7.208;2022-12-07T01:28:40;18.30;35.10
4411;DHT22;2218;51.408;7.208;2022-12-07T01:31:12;18.30;35.20
4411;DHT22;2218;51.408;7.208;2022-12-07T01:33:43;18.30;35.10
4411;DHT22;2218;51.408;7.208;2022-12-07T01:36:14;18.20;35.10
4411;DHT22;2218;51.408;7.208;2022-12-07T01:38:42;18.20;35.60
4411;DHT22;2218;51.408;7.208;2022-12-07T01:41:10;18.20;35.10
4411;DHT22;2218;51.408;7.208;2022-12-07T01:44:10;18.20;35.10
4411;DHT22;2218;51.408;7.208;2022-12-07T01:46:44;18.20;35.10
4411;DHT22;2218;51.408;7.208;2022-12-07T01:49:16;18.20;35.20
4411;DHT22;2218;51.408;7.208;2022-12-07T01:51:49;18.20;35.20
4411;DHT22;2218;51.408;7.208;2022-12-07T01:54:20;18.20;35.20
4411;DHT22;2218;51.408;7.208;2022-12-07T01:56:50;18.20;35.20
4411;DHT22;2218;51.408;7.208;2022-12-07T01:59:23;18.20;35.20
4411;DHT22;2218;51.408;7.208;2022-12-07T02:01:52;18.20;35.30
4411;DHT22;2218;51.408;7.208;2022-12-07T02:04:21;18.20;35.30
4411;DHT22;2218;51.408;7.208;2022-12-07T02:06:49;18.20;35.30
4411;DHT22;2218;51.408;7.208;2022-12-07T02:09:17;18.20;35.30
4411;DHT22;2218;51.408;7.208;2022-12-07T02:11:44;18.20;35.30
4411;DHT22;2218;51.408;7.208;2022-12-07T02:14:11;18.10;35.30
4411;DHT22;2218;51.408;7.208;2022-12-07T02:16:48;18.10;35.30
4411;DHT22;2218;51.408;7.208;2022-12-07T02:22:54;18.10;35.30
4411;DHT22;2218;51.408;7.208;2022-12-07T02:25:58;18.10;35.30
4411;DHT22;2218;51.408;7.208;2022-12-07T02:28:57;18.20;35.40
4411;DHT22;2218;51.408;7.208;2022-12-07T02:31:43;18.20;35.40
4411;DHT22;2218;51.408;7.208;2022-12-07T02:34:21;18.20;35.30
4411;DHT22;2218;51.408;7.208;2022-12-07T02:36:57;18.20;35.30
4411;DHT22;2218;51.408;7.208;2022-12-07T02:39:33;18.20;35.20
4411;DHT22;2218;51.408;7.208;2022-12-07T02:42:13;18.20;35.30
4411;DHT22;2218;51.408;7.208;2022-12-07T02:44:44;18.20;35.20
4411;DHT22;2218;51.408;7.208;2022-12-07T02:47:16;18.20;35.20
4411;DHT22;2218;51.408;7.208;2022-12-07T02:49:45;18.30;35.30
4411;DHT22;2218;51.408;7.208;2022-12-07T02:52:12;18.30;35.30
4411;DHT22;2218;51.408;7.208;2022-12-07T02:54:39;18.30;35.30
4411;DHT22;2218;51.408;7.208;2022-12-07T02:57:19;18.30;35.30
4411;DHT22;2218;51.408;7.208;2022-12-07T03:00:03;18.30;35.30
4411;DHT22;2218;51.408;7.208;2022-12-07T03:02:41;18.30;35.30
4411;DHT22;2218;51.408;7.208;2022-12-07T03:05:36;18.30;35.30
4411;DHT22;2218;51.408;7.208;2022-12-07T03:08:21;18.30;35.30
4411;DHT22;2218;51.408;7.208;2022-12-07T03:10:59;18.30;35.20
4411;DHT22;2218;51.408;7.208;2022-12-07T03:13:33;18.30;35.20
4411;DHT22;2218;51.408;7.208;2022-12-07T03:16:09;18.30;35.20
4411;DHT22;2218;51.408;7.208;2022-12-07T03:18:46;18.30;35.20
4411;DHT22;2218;51.408;7.208;2022-12-07T03:21:18;18.30;35.20
4411;DHT22;2218;51.408;7.208;2022-12-07T03:23:52;18.40;35.30
4411;DHT22;2218;51.408;7.208;2022-12-07T03:26:28;18.30;35.20
4411;DHT22;2218;51.408;7.208;2022-12-07T03:29:03;18.30;35.20
4411;DHT22;2218;51.408;7.208;2022-12-07T03:31:38;18.30;35.20
4411;DHT22;2218;51.408;7.208;2022-12-07T03:34:11;18.30;35.20
4411;DHT22;2218;51.408;7.208;2022-12-07T03:36:46;18.30;35.70
4411;DHT22;2218;51.408;7.208;2022-12-07T03:39:22;18.30;35.20
4411;DHT22;2218;51.408;7.208;2022-12-07T03:41:53;18.40;35.30
4411;DHT22;2218;51.408;7.208;2022-12-07T03:44:22;18.40;35.20
4411;DHT22;2218;51.408;7.208;2022-12-07T03:46:56;18.30;35.20
4411;DHT22;2218;51.408;7.208;2022-12-07T03:49:39;18.30;35.20
4411;DHT22;2218;51.408;7.208;2022-12-07T03:52:16;18.40;35.30
4411;DHT22;2218;51.408;7.208;2022-12-07T03:54:53;18.40;35.20
4411;DHT22;2218;51.408;7.208;2022-12-07T03:57:26;18.40;35.20
4411;DHT22;2218;51.408;7.208;2022-12-07T03:59:55;18.40;35.20
4411;DHT22;2218;51.408;7.208;2022-12-07T04:02:27;18.40;35.20
4411;DHT22;2218;51.408;7.208;2022-12-07T04:04:55;18.40;35.20
4411;DHT22;2218;51.408;7.208;2022-12-07T04:07:23;18.40;35.20
4411;DHT22;2218;51.408;7.208;2022-12-07T04:09:50;18.40;35.20
4411;DHT22;2218;51.408;7.208;2022-12-07T04:12:16;18.40;35.20
4411;DHT22;2218;51.408;7.208;2022-12-07T04:14:43;18.40;35.20
4411;DHT22;2218;51.408;7.208;2022-12-07T04:17:10;18.40;35.20
4411;DHT22;2218;51.408;7.208;2022-12-07T04:19:39;18.40;35.20
4411;DHT22;2218;51.408;7.208;2022-12-07T04:22:06;18.40;35.20
4411;DHT22;2218;51.408;7.208;2022-12-07T04:24:34;18.40;35.20
4411;DHT22;2218;51.408;7.208;2022-12-07T04:27:02;18.40;35.20
4411;DHT22;2218;51.408;7.208;2022-12-07T04:29:29;18.40;35.20
4411;DHT22;2218;51.408;7.208;2022-12-07T04:31:56;18.40;35.20
4411;DHT22;2218;51.408;7.208;2022-12-07T04:34:23;18.40;35.20
4411;DHT22;2218;51.408;7.208;2022-12-07T04:36:51;18.40;35.20
4411;DHT22;2218;51.408;7.208;2022-12-07T04:39:20;18.40;35.10
4411;DHT22;2218;51.408;7.208;2022-12-07T04:41:50;18.40;35.20
4411;DHT22;2218;51.408;7.208;2022-12-07T04:44:18;18.40;35.10
4411;DHT22;2218;51.408;7.208;2022-12-07T04:46:45;18.40;35.20
4411;DHT22;2218;51.408;7.208;2022-12-07T04:49:13;18.40;35.10
4411;DHT22;2218;51.408;7.208;2022-12-07T04:51:41;18.40;35.10
4411;DHT22;2218;51.408;7.208;2022-12-07T04:54:10;18.40;35.10
4411;DHT22;2218;51.408;7.208;2022-12-07T04:56:38;18.40;35.10
4411;DHT22;2218;51.408;7.208;2022-12-07T04:59:05;18.40;35.20
4411;DHT22;2218;51.408;7.208;2022-12-07T05:01:32;18.40;35.60
4411;DHT22;2218;51.408;7.208;2022-12-07T05:03:59;18.40;35.10
4411;DHT22;2218;51.408;7.208;2022-12-07T05:06:27;18.40;35.10
4411;DHT22;2218;51.408;7.208;2022-12-07T05:08:53;18.40;35.10
4411;DHT22;2218;51.408;7.208;2022-12-07T05:11:22;18.40;35.00
4411;DHT22;2218;51.408;7.208;2022-12-07T05:14:10;18.40;35.00
4411;DHT22;2218;51.408;7.208;2022-12-07T05:16:39;18.40;35.10
4411;DHT22;2218;51.408;7.208;2022-12-07T05:19:08;18.40;35.10
4411;DHT22;2218;51.408;7.208;2022-12-07T05:21:35;18.50;35.10
4411;DHT22;2218;51.408;7.208;2022-12-07T05:24:04;18.50;35.00
4411;DHT22;2218;51.408;7.208;2022-12-07T05:26:33;18.50;35.00
4411;DHT22;2218;51.408;7.208;2022-12-07T05:29:00;18.50;34.90
4411;DHT22;2218;51.408;7.208;2022-12-07T05:31:27;18.60;34.90
4411;DHT22;2218;51.408;7.208;2022-12-07T05:33:54;18.60;34.90
4411;DHT22;2218;51.408;7.208;2022-12-07T05:36:21;18.60;34.80
4411;DHT22;2218;51.408;7.208;2022-12-07T05:38:48;18.70;34.90
4411;DHT22;2218;51.408;7.208;2022-12-07T05:41:17;18.70;34.80
4411;DHT22;2218;51.408;7.208;2022-12-07T05:44:05;18.70;34.80
4411;DHT22;2218;51.408;7.208;2022-12-07T05:46:32;18.70;34.70
4411;DHT22;2218;51.408;7.208;2022-12-07T05:49:00;18.70;34.70
4411;DHT22;2218;51.408;7.208;2022-12-07T05:51:28;18.70;34.70
4411;DHT22;2218;51.408;7.208;2022-12-07T05:53:55;18.70;34.70
4411;DHT22;2218;51.408;7.208;2022-12-07T05:56:21;18.80;34.70
4411;DHT22;2218;51.408;7.208;2022-12-07T05:58:49;18.80;34.70
4411;DHT22;2218;51.408;7.208;2022-12-07T06:01:35;18.80;34.70
4411;DHT22;2218;51.408;7.208;2022-12-07T06:04:02;18.80;34.60
4411;DHT22;2218;51.408;7.208;2022-12-07T06:06:29;18.80;34.60
4411;DHT22;2218;51.408;7.208;2022-12-07T06:08:56;18.80;34.60
4411;DHT22;2218;51.408;7.208;2022-12-07T06:11:23;18.80;34.50
4411;DHT22;2218;51.408;7.208;2022-12-07T06:14:07;18.80;34.50
4411;DHT22;2218;51.408;7.208;2022-12-07T06:16:36;18.90;34.60
4411;DHT22;2218;51.408;7.208;2022-12-07T06:19:03;18.90;34.60
4411;DHT22;2218;51.408;7.208;2022-12-07T06:21:30;18.90;35.20
4411;DHT22;2218;51.408;7.208;2022-12-07T06:23:56;18.90;34.50
4411;DHT22;2218;51.408;7.208;2022-12-07T06:26:24;18.90;34.50
4411;DHT22;2218;51.408;7.208;2022-12-07T06:28:50;18.90;34.50
4411;DHT22;2218;51.408;7.208;2022-12-07T06:31:17;18.90;34.40
4411;DHT22;2218;51.408;7.208;2022-12-07T06:33:45;18.90;34.40
4411;DHT22;2218;51.408;7.208;2022-12-07T06:36:12;18.90;34.40
4411;DHT22;2218;51.408;7.208;2022-12-07T06:38:39;18.90;34.40
4411;DHT22;2218;51.408;7.208;2022-12-07T06:41:06;18.90;34.30
4411;DHT22;2218;51.408;7.208;2022-12-07T06:43:33;18.90;34.30
4411;DHT22;2218;51.408;7.208;2022-12-07T06:46:01;18.90;34.30
4411;DHT22;2218;51.408;7.208;2022-12-07T06:48:28;18.90;34.30
4411;DHT22;2218;51.408;7.208;2022-12-07T06:50:56;18.90;34.30
4411;DHT22;2218;51.408;7.208;2022-12-07T06:53:23;18.90;34.20
4411;DHT22;2218;51.408;7.208;2022-12-07T06:55:50;19.00;34.30
4411;DHT22;2218;51.408;7.208;2022-12-07T06:58:17;19.00;34.40
4411;DHT22;2218;51.408;7.208;2022-12-07T07:00:45;19.00;34.40
4411;DHT22;2218;51.408;7.208;2022-12-07T07:03:14;19.00;34.40
4411;DHT22;2218;51.408;7.208;2022-12-07T07:05:41;19.00;34.40
4411;DHT22;2218;51.408;7.208;2022-12-07T07:08:10;19.00;34.40
4411;DHT22;2218;51.408;7.208;2022-12-07T07:10:37;19.00;34.40
4411;DHT22;2218;51.408;7.208;2022-12-07T07:13:05;19.00;34.40
4411;DHT22;2218;51.408;7.208;2022-12-07T07:15:32;19.00;34.40
4411;DHT22;2218;51.408;7.208;2022-12-07T07:18:00;19.00;34.50
4411;DHT22;2218;51.408;7.208;2022-12-07T07:20:29;19.00;34.50
4411;DHT22;2218;51.408;7.208;2022-12-07T07:22:56;19.00;34.50
4411;DHT22;2218;51.408;7.208;2022-12-07T07:25:24;19.10;34.60
4411;DHT22;2218;51.408;7.208;2022-12-07T07:27:51;19.10;34.60
4411;DHT22;2218;51.408;7.208;2022-12-07T07:30:18;19.10;34.60
4411;DHT22;2218;51.408;7.208;2022-12-07T07:32:45;19.10;34.60
4411;DHT22;2218;51.408;7.208;2022-12-07T07:35:12;19.10;34.50
4411;DHT22;2218;51.408;7.208;2022-12-07T07:37:39;19.10;34.50
4411;DHT22;2218;51.408;7.208;2022-12-07T07:40:07;19.10;34.60
4411;DHT22;2218;51.408;7.208;2022-12-07T07:42:36;19.10;34.70
4411;DHT22;2218;51.408;7.208;2022-12-07T07:45:04;19.20;34.60
4411;DHT22;2218;51.408;7.208;2022-12-07T07:47:31;19.30;34.40
4411;DHT22;2218;51.408;7.208;2022-12-07T07:49:58;19.30;34.40
4411;DHT22;2218;51.408;7.208;2022-12-07T07:52:26;19.40;34.40
4411;DHT22;2218;51.408;7.208;2022-12-07T07:54:53;19.50;34.40
4411;DHT22;2218;51.408;7.208;2022-12-07T07:57:20;19.50;34.30
4411;DHT22;2218;51.408;7.208;2022-12-07T07:59:48;19.50;34.30
4411;DHT22;2218;51.408;7.208;2022-12-07T08:02:17;19.60;34.40
4411;DHT22;2218;51.408;7.208;2022-12-07T08:04:45;19.60;34.30
4411;DHT22;2218;51.408;7.208;2022-12-07T08:07:13;19.60;34.30
4411;DHT22;2218;51.408;7.208;2022-12-07T08:09:41;19.60;34.30
4411;DHT22;2218;51.408;7.208;2022-12-07T08:12:08;19.60;34.20
4411;DHT22;2218;51.408;7.208;2022-12-07T08:14:35;19.60;34.20
4411;DHT22;2218;51.408;7.208;2022-12-07T08:17:03;19.60;34.20
4411;DHT22;2218;51.408;7.208;2022-12-07T08:19:30;19.70;34.20
4411;DHT22;2218;51.408;7.208;2022-12-07T08:21:57;19.70;34.20
4411;DHT22;2218;51.408;7.208;2022-12-07T08:24:24;19.70;34.20
4411;DHT22;2218;51.408;7.208;2022-12-07T08:26:51;19.70;34.20
4411;DHT22;2218;51.408;7.208;2022-12-07T08:29:18;19.70;34.10
4411;DHT22;2218;51.408;7.208;2022-12-07T08:31:46;19.70;34.10
4411;DHT22;2218;51.408;7.208;2022-12-07T08:34:14;19.80;34.20
4411;DHT22;2218;51.408;7.208;2022-12-07T08:36:41;19.80;34.20
4411;DHT22;2218;51.408;7.208;2022-12-07T08:39:08;19.80;34.20
4411;DHT22;2218;51.408;7.208;2022-12-07T08:41:35;19.80;34.20
4411;DHT22;2218;51.408;7.208;2022-12-07T08:44:03;19.80;34.40
4411;DHT22;2218;51.408;7.208;2022-12-07T08:46:32;19.90;34.40
4411;DHT22;2218;51.408;7.208;2022-12-07T08:49:05;20.00;34.30
4411;DHT22;2218;51.408;7.208;2022-12-07T08:51:37;20.00;34.30
4411;DHT22;2218;51.408;7.208;2022-12-07T08:54:09;20.00;34.30
4411;DHT22;2218;51.408;7.208;2022-12-07T08:56:40;20.00;34.30
4411;DHT22;2218;51.408;7.208;2022-12-07T08:59:08;20.00;34.40
4411;DHT22;2218;51.408;7.208;2022-12-07T09:01:35;20.00;34.40
4411;DHT22;2218;51.408;7.208;2022-12-07T09:04:02;20.10;34.60
4411;DHT22;2218;51.408;7.208;2022-12-07T09:06:29;20.10;34.50
4411;DHT22;2218;51.408;7.208;2022-12-07T09:08:59;20.10;34.50
4411;DHT22;2218;51.408;7.208;2022-12-07T09:11:27;20.10;34.40
4411;DHT22;2218;51.408;7.208;2022-12-07T09:13:56;20.10;34.30
4411;DHT22;2218;51.408;7.208;2022-12-07T09:16:23;20.10;34.20
4411;DHT22;2218;51.408;7.208;2022-12-07T09:18:50;20.10;34.10
4411;DHT22;2218;51.408;7.208;2022-12-07T09:21:16;20.10;34.00
4411;DHT22;2218;51.408;7.208;2022-12-07T09:23:43;20.10;34.00
4411;DHT22;2218;51.408;7.208;2022-12-07T09:26:12;20.10;34.00
4411;DHT22;2218;51.408;7.208;2022-12-07T09:28:39;20.10;33.90
4411;DHT22;2218;51.408;7.208;2022-12-07T09:31:06;20.10;34.30
4411;DHT22;2218;51.408;7.208;2022-12-07T09:33:33;20.10;33.80
4411;DHT22;2218;51.408;7.208;2022-12-07T09:36:00;20.20;33.80
4411;DHT22;2218;51.408;7.208;2022-12-07T09:38:28;20.20;33.80
4411;DHT22;2218;51.408;7.208;2022-12-07T09:40:55;20.20;33.80
4411;DHT22;2218;51.408;7.208;2022-12-07T09:43:25;20.20;33.80
4411;DHT22;2218;51.408;7.208;2022-12-07T09:45:54;20.20;33.80
4411;DHT22;2218;51.408;7.208;2022-12-07T09:48:27;20.20;33.80
4411;DHT22;2218;51.408;7.208;2022-12-07T09:50:58;20.30;34.00
4411;DHT22;2218;51.408;7.208;2022-12-07T09:53:32;20.30;34.00
4411;DHT22;2218;51.408;7.208;2022-12-07T09:56:01;20.30;34.00
4411;DHT22;2218;51.408;7.208;2022-12-07T09:58:31;20.30;34.00
4411;DHT22;2218;51.408;7.208;2022-12-07T10:01:05;20.30;34.00
4411;DHT22;2218;51.408;7.208;2022-12-07T10:03:40;20.30;34.00
4411;DHT22;2218;51.408;7.208;2022-12-07T10:06:20;20.20;34.00
4411;DHT22;2218;51.408;7.208;2022-12-07T10:08:48;20.20;33.90
4411;DHT22;2218;51.408;7.208;2022-12-07T10:11:15;20.20;33.80
4411;DHT22;2218;51.408;7.208;2022-12-07T10:13:45;20.20;33.70
4411;DHT22;2218;51.408;7.208;2022-12-07T10:16:35;20.20;33.80
4411;DHT22;2218;51.408;7.208;2022-12-07T10:19:23;20.10;33.70
4411;DHT22;2218;51.408;7.208;2022-12-07T10:22:16;20.10;33.70
4411;DHT22;2218;51.408;7.208;2022-12-07T10:24:46;20.10;33.60
4411;DHT22;2218;51.408;7.208;2022-12-07T10:27:19;20.10;33.60
4411;DHT22;2218;51.408;7.208;2022-12-07T10:29:50;20.10;33.50
4411;DHT22;2218;51.408;7.208;2022-12-07T10:32:29;20.10;33.50
4411;DHT22;2218;51.408;7.208;2022-12-07T10:35:20;20.10;33.40
4411;DHT22;2218;51.408;7.208;2022-12-07T10:37:50;20.10;33.70
4411;DHT22;2218;51.408;7.208;2022-12-07T10:40:27;20.20;33.70
4411;DHT22;2218;51.408;7.208;2022-12-07T10:43:04;20.10;33.70
4411;DHT22;2218;51.408;7.208;2022-12-07T10:46:07;20.10;33.70
4411;DHT22;2218;51.408;7.208;2022-12-07T10:49:01;20.10;33.70
4411;DHT22;2218;51.408;7.208;2022-12-07T10:51:38;20.10;33.70
4411;DHT22;2218;51.408;7.208;2022-12-07T10:54:21;20.10;33.70
4411;DHT22;2218;51.408;7.208;2022-12-07T10:57:05;20.10;33.80
4411;DHT22;2218;51.408;7.208;2022-12-07T10:59:56;20.10;33.80
4411;DHT22;2218;51.408;7.208;2022-12-07T11:02:54;20.10;33.90
4411;DHT22;2218;51.408;7.208;2022-12-07T11:05:38;20.10;33.90
4411;DHT22;2218;51.408;7.208;2022-12-07T11:08:18;20.10;33.90
4411;DHT22;2218;51.408;7.208;2022-12-07T11:10:55;20.00;33.80
4411;DHT22;2218;51.408;7.208;2022-12-07T11:13:34;20.10;34.00
4411;DHT22;2218;51.408;7.208;2022-12-07T11:16:36;20.10;33.90
4411;DHT22;2218;51.408;7.208;2022-12-07T11:19:24;20.10;34.00
4411;DHT22;2218;51.408;7.208;2022-12-07T11:22:03;20.00;33.90
4411;DHT22;2218;51.408;7.208;2022-12-07T11:24:42;20.00;33.80
4411;DHT22;2218;51.408;7.208;2022-12-07T11:27:22;20.10;34.10
4411;DHT22;2218;51.408;7.208;2022-12-07T11:30:12;20.10;34.70
4411;DHT22;2218;51.408;7.208;2022-12-07T11:33:07;20.10;34.20
4411;DHT22;2218;51.408;7.208;2022-12-07T11:35:54;20.20;34.30
4411;DHT22;2218;51.408;7.208;2022-12-07T11:38:41;20.10;34.30
4411;DHT22;2218;51.408;7.208;2022-12-07T11:41:12;20.20;34.20
4411;DHT22;2218;51.408;7.208;2022-12-07T11:43:52;20.10;34.10
4411;DHT22;2218;51.408;7.208;2022-12-07T11:46:25;20.20;34.10
4411;DHT22;2218;51.408;7.208;2022-12-07T11:49:01;20.20;33.90
4411;DHT22;2218;51.408;7.208;2022-12-07T11:51:37;20.20;34.10
4411;DHT22;2218;51.408;7.208;2022-12-07T11:54:13;20.20;34.00
4411;DHT22;2218;51.408;7.208;2022-12-07T11:56:46;20.20;33.90
4411;DHT22;2218;51.408;7.208;2022-12-07T11:59:19;20.20;33.80
4411;DHT22;2218;51.408;7.208;2022-12-07T12:01:56;20.20;33.70
4411;DHT22;2218;51.408;7.208;2022-12-07T12:04:35;20.20;33.60
4411;DHT22;2218;51.408;7.208;2022-12-07T12:07:21;20.20;33.60
4411;DHT22;2218;51.408;7.208;2022-12-07T12:09:52;20.20;33.60
4411;DHT22;2218;51.408;7.208;2022-12-07T12:12:45;20.20;33.50
4411;DHT22;2218;51.408;7.208;2022-12-07T12:15:37;20.20;33.40
4411;DHT22;2218;51.408;7.208;2022-12-07T12:21:23;20.20;33.40
4411;DHT22;2218;51.408;7.208;2022-12-07T12:23:57;20.20;33.30
4411;DHT22;2218;51.408;7.208;2022-12-07T12:26:28;20.20;33.20
4411;DHT22;2218;51.408;7.208;2022-12-07T12:28:59;20.20;33.20
4411;DHT22;2218;51.408;7.208;2022-12-07T12:31:37;20.20;33.20
4411;DHT22;2218;51.408;7.208;2022-12-07T12:34:32;20.20;33.20
4411;DHT22;2218;51.408;7.208;2022-12-07T12:40:41;20.20;33.20
4411;DHT22;2218;51.408;7.208;2022-12-07T12:43:45;20.20;33.20
4411;DHT22;2218;51.408;7.208;2022-12-07T12:46:49;20.20;33.30
4411;DHT22;2218;51.408;7.208;2022-12-07T12:49:36;20.20;33.40
4411;DHT22;2218;51.408;7.208;2022-12-07T12:55:25;20.20;33.30
4411;DHT22;2218;51.408;7.208;2022-12-07T12:58:32;20.30;33.40
4411;DHT22;2218;51.408;7.208;2022-12-07T13:10:44;20.30;33.60
4411;DHT22;2218;51.408;7.208;2022-12-07T13:13:34;20.30;33.60
4411;DHT22;2218;51.408;7.208;2022-12-07T13:19:33;20.20;33.60
4411;DHT22;2218;51.408;7.208;2022-12-07T13:22:49;20.20;33.60
4411;DHT22;2218;51.408;7.208;2022-12-07T13:25:23;20.20;33.60
4411;DHT22;2218;51.408;7.208;2022-12-07T13:28:02;20.20;33.70
4411;DHT22;2218;51.408;7.208;2022-12-07T13:30:45;20.20;33.70
4411;DHT22;2218;51.408;7.208;2022-12-07T13:33:17;20.20;33.70
4411;DHT22;2218;51.408;7.208;2022-12-07T13:35:45;20.20;33.70
4411;DHT22;2218;51.408;7.208;2022-12-07T13:38:25;20.20;33.70
4411;DHT22;2218;51.408;7.208;2022-12-07T13:41:16;20.20;33.80
4411;DHT22;2218;51.408;7.208;2022-12-07T13:43:47;20.20;33.80
4411;DHT22;2218;51.408;7.208;2022-12-07T13:46:18;20.20;33.80
4411;DHT22;2218;51.408;7.208;2022-12-07T13:48:50;20.20;33.80
4411;DHT22;2218;51.408;7.208;2022-12-07T13:51:20;20.20;33.80
4411;DHT22;2218;51.408;7.208;2022-12-07T13:53:50;20.10;33.80
4411;DHT22;2218;51.408;7.208;2022-12-07T13:56:21;20.10;33.80
4411;DHT22;2218;51.408;7.208;2022-12-07T13:58:51;20.10;33.80
4411;DHT22;2218;51.408;7.208;2022-12-07T14:01:19;20.10;33.80
4411;DHT22;2218;51.408;7.208;2022-12-07T14:03:46;20.10;33.90
4411;DHT22;2218;51.408;7.208;2022-12-07T14:06:25;20.10;33.90
4411;DHT22;2218;51.408;7.208;2022-12-07T14:09:07;20.10;33.90
4411;DHT22;2218;51.408;7.208;2022-12-07T14:11:43;20.10;33.90
4411;DHT22;2218;51.408;7.208;2022-12-07T14:14:15;20.10;33.90
4411;DHT22;2218;51.408;7.208;2022-12-07T14:16:59;20.10;34.00
4411;DHT22;2218;51.408;7.208;2022-12-07T14:19:42;20.10;34.00
4411;DHT22;2218;51.408;7.208;2022-12-07T14:22:24;20.10;34.00
4411;DHT22;2218;51.408;7.208;2022-12-07T14:25:14;20.10;34.00
4411;DHT22;2218;51.408;7.208;2022-12-07T14:27:53;20.10;34.00
4411;DHT22;2218;51.408;7.208;2022-12-07T14:30:24;20.10;34.00
4411;DHT22;2218;51.408;7.208;2022-12-07T14:32:57;20.10;34.10
4411;DHT22;2218;51.408;7.208;2022-12-07T14:35:26;20.10;34.20
4411;DHT22;2218;51.408;7.208;2022-12-07T14:37:54;20.10;34.00
4411;DHT22;2218;51.408;7.208;2022-12-07T14:40:23;20.10;33.90
4411;DHT22;2218;51.408;7.208;2022-12-07T14:42:56;20.20;33.80
4411;DHT22;2218;51.408;7.208;2022-12-07T14:45:29;20.20;33.70
4411;DHT22;2218;51.408;7.208;2022-12-07T14:47:57;20.20;33.60
4411;DHT22;2218;51.408;7.208;2022-12-07T14:50:24;20.20;33.50
4411;DHT22;2218;51.408;7.208;2022-12-07T14:52:54;20.20;33.40
4411;DHT22;2218;51.408;7.208;2022-12-07T14:55:25;20.20;33.30
4411;DHT22;2218;51.408;7.208;2022-12-07T14:57:53;20.20;33.30
4411;DHT22;2218;51.408;7.208;2022-12-07T15:00:22;20.20;33.30
4411;DHT22;2218;51.408;7.208;2022-12-07T15:02:52;20.20;33.30
4411;DHT22;2218;51.408;7.208;2022-12-07T15:05:20;20.20;33.30
4411;DHT22;2218;51.408;7.208;2022-12-07T15:07:48;20.20;33.20
4411;DHT22;2218;51.408;7.208;2022-12-07T15:10:17;20.20;33.10
4411;DHT22;2218;51.408;7.208;2022-12-07T15:12:46;20.20;33.10
4411;DHT22;2218;51.408;7.208;2022-12-07T15:15:13;20.20;33.00
4411;DHT22;2218;51.408;7.208;2022-12-07T15:17:41;20.20;33.10
4411;DHT22;2218;51.408;7.208;2022-12-07T15:20:12;20.20;33.10
4411;DHT22;2218;51.408;7.208;2022-12-07T15:22:41;20.20;33.20
4411;DHT22;2218;51.408;7.208;2022-12-07T15:25:09;20.20;33.20
4411;DHT22;2218;51.408;7.208;2022-12-07T15:27:39;20.20;33.20
4411;DHT22;2218;51.408;7.208;2022-12-07T15:30:07;20.30;33.30
4411;DHT22;2218;51.408;7.208;2022-12-07T15:32:34;20.20;33.30
4411;DHT22;2218;51.408;7.208;2022-12-07T15:35:01;20.30;33.30
4411;DHT22;2218;51.408;7.208;2022-12-07T15:37:28;20.20;33.30
4411;DHT22;2218;51.408;7.208;2022-12-07T15:39:56;20.30;33.30
4411;DHT22;2218;51.408;7.208;2022-12-07T15:42:23;20.20;33.20
4411;DHT22;2218;51.408;7.208;2022-12-07T15:44:50;20.20;33.30
4411;DHT22;2218;51.408;7.208;2022-12-07T15:47:33;20.30;33.40
4411;DHT22;2218;51.408;7.208;2022-12-07T15:50:03;20.30;33.20
4411;DHT22;2218;51.408;7.208;2022-12-07T15:52:30;20.30;33.00
4411;DHT22;2218;51.408;7.208;2022-12-07T15:54:59;20.40;32.90
4411;DHT22;2218;51.408;7.208;2022-12-07T15:57:28;20.30;32.70
4411;DHT22;2218;51.408;7.208;2022-12-07T15:59:55;20.40;32.60
4411;DHT22;2218;51.408;7.208;2022-12-07T16:02:22;20.40;32.40
4411;DHT22;2218;51.408;7.208;2022-12-07T16:04:49;20.40;32.20
4411;DHT22;2218;51.408;7.208;2022-12-07T16:07:17;20.40;32.00
4411;DHT22;2218;51.408;7.208;2022-12-07T16:09:45;20.50;32.00
4411;DHT22;2218;51.408;7.208;2022-12-07T16:12:14;20.50;32.00
4411;DHT22;2218;51.408;7.208;2022-12-07T16:14:42;20.50;31.40
4411;DHT22;2218;51.408;7.208;2022-12-07T16:17:09;20.50;31.40
4411;DHT22;2218;51.408;7.208;2022-12-07T16:19:37;20.50;31.30
4411;DHT22;2218;51.408;7.208;2022-12-07T16:22:04;20.50;31.20
4411;DHT22;2218;51.408;7.208;2022-12-07T16:24:32;20.50;31.40
4411;DHT22;2218;51.408;7.208;2022-12-07T16:26:59;20.50;30.80
4411;DHT22;2218;51.408;7.208;2022-12-07T16:29:27;20.50;31.10
4411;DHT22;2218;51.408;7.208;2022-12-07T16:31:54;20.60;31.00
4411;DHT22;2218;51.408;7.208;2022-12-07T16:34:21;20.60;31.10
4411;DHT22;2218;51.408;7.208;2022-12-07T16:36:48;20.60;30.90
4411;DHT22;2218;51.408;7.208;2022-12-07T16:39:15;20.60;30.80
4411;DHT22;2218;51.408;7.208;2022-12-07T16:41:43;20.60;30.60
4411;DHT22;2218;51.408;7.208;2022-12-07T16:44:11;20.60;30.60
4411;DHT22;2218;51.408;7.208;2022-12-07T16:46:40;20.60;31.20
4411;DHT22;2218;51.408;7.208;2022-12-07T16:49:11;20.60;30.70
4411;DHT22;2218;51.408;7.208;2022-12-07T16:51:39;20.60;30.40
4411;DHT22;2218;51.408;7.208;2022-12-07T16:54:09;20.60;30.40
4411;DHT22;2218;51.408;7.208;2022-12-07T16:56:36;20.60;30.50
4411;DHT22;2218;51.408;7.208;2022-12-07T16:59:04;20.70;30.50
4411;DHT22;2218;51.408;7.208;2022-12-07T17:01:30;20.60;30.50